Moffett Field, CA

2:20 PM PDT on August 03, 2015 (GMT -0700)
Moffett Federal Air Field | Change Station
CLOSE
Current Station
Airport
Location: Moffett NAS,
Elevation: 39 ft
Nearby Weather Stations

Elev 39 ft 37.41 °N, 122.05 °W | Updated 24 minutes ago

Clear
Clear
74 °F
Feels Like 74 °F
N
17
Wind Variable Wind from North

Today
High -- | Low -- °F
--% Chance of Precip.
Yesterday
High -- | Low -- °F
Precip. -- in
6:14 AM 8:14 PM
Waning Gibbous, 84% visible
Pressure 29.97 in
Visibility 10.0 miles
Clouds Clear
Dew Point 55 °F
Humidity 52%
Rainfall 0.00 in
Snow Depth Not available.
UV 11 out of 12
Pollen 4.30 out of 12
Ozone Good
PM2.5 Good
Flu Activity Not available.
METAR KNUQ 032056Z 35015KT 10SM CLR 23/13 A2996 RMK AO2 SLP148 T02330128 58007

More Conditions Fewer Conditions

Pressure 29.97 in
Visibility 10.0 miles
Clouds Clear
Dew Point 55 °F
Humidity 52%
Rainfall 0.00 in
Snow Depth Not available.
UV 11 out of 12
Pollen 4.30 out of 12
Ozone Good
PM2.5 Good
Flu Activity Not available.
METAR KNUQ 032056Z 35015KT 10SM CLR 23/13 A2996 RMK AO2 SLP148 T02330128 58007

More Conditions Fewer Conditions

10-Day Weather Forecast

Almanac

Astronomy

Aug. 03, 2015 Rise Set
Actual Time 6:14 AM PDT 8:14 PM PDT
Civil Twilight 5:45 AM PDT 8:42 PM PDT
Nautical Twilight 5:10 AM PDT 9:17 PM PDT
Astronomical Twilight 4:32 AM PDT 9:55 PM PDT
Moon 10:28 PM PDT 10:00 AM PDT
Length of Visible Light 14h 57m
Length of Day
14h 00m
Tomorrow will be 1m 51s shorter.
Waning Gibbous, 84% of the Moon is Illuminated
Today
Waning Gibbous
Aug 6
Last Quarter
Aug 14
New
Aug 22
First Quarter
Aug 29
Full

Today's Extremes

State Highs State Lows

Community

WunderPhotos

Upload Photos

1,843,770 photos uploaded!

Nearby

Air Quality

  Air Quality AQ Index Pollutant
Yesterday Good
OZONE
Yesterday Good
PM2.5
Current Good
OZONE
Current Good
PM2.5
Monday Good
OZONE
Tuesday Good
OZONE
Wednesday Good
OZONE
Thursday Good
OZONE
Friday Good
OZONE
Saturday Good
OZONE

Snow Depth

Station Depth Elevation
Leavitt Meadows 1 in 7200 ft
Summit Meadow 0 in 9122 ft
Virginia Lakes Ridge 0 in 9200 ft
Adin Mountain 0 in 6200 ft
Cedar Pass 0 in 7100 ft

Earthquake Activity

City Distance Mag. Time & Date
The Geysers, California 99 miles 2.8 4:17 AM PDT
2015-08-03
Mendota, California 98 miles 3.2 9:30 AM PDT
2015-08-02
San Leandro, California 22 miles 2.6 4:52 AM PDT
2015-08-01
Minimum magnitude displayed is 2.5.

Coastal Water Temperatures

Place Temperature
No Stations Reporting

Nearby Weather Stations